This is the latest recevied weather packets stored in our database for station/object DPX206-15. If no packets are shown the sender has not sent any weather packets the latest 10 day(s).
| Time | Temp. | Humidity | Pressure | Rain* | Wind** | Luminosity | Snow |
|---|---|---|---|---|---|---|---|
| 1777432054 | 0.56° C | 78% | 1027.8 hPa | 0 mm | - | 0 W/m² | - |
| 1777428304 | 1.11° C | 76% | 1027.9 hPa | 0 mm | - | 0 W/m² | - |
| 1777426053 | 1.67° C | 74% | 1027.8 hPa | 0 mm | - | 0 W/m² | - |
| 1777424552 | 2.22° C | 73% | 1027.7 hPa | 0 mm | - | 0 W/m² | - |
| 1777423052 | 2.78° C | 72% | 1027.6 hPa | 0 mm | - | 0 W/m² | - |
| 1777418551 | 3.89° C | 68% | 1027.7 hPa | 0 mm | - | 0 W/m² | - |
| 1777415550 | 4.44° C | 65% | 1027.1 hPa | 0 mm | - | 0 W/m² | - |
| 1777414800 | 5° C | 63% | 1027.3 hPa | 0 mm | - | 0 W/m² | - |
| 1777411799 | 5.56° C | 60% | 1027.3 hPa | 0 mm | - | 0 W/m² | - |
| 1777411049 | 5.56° C | 59% | 1026.9 hPa | 0 mm | - | 0 W/m² | - |
| 1777410298 | 5.56° C | 59% | 1026.8 hPa | 0 mm | - | 0 W/m² | - |
| 1777408048 | 7.22° C | 55% | 1026.6 hPa | 0 mm | - | 0 W/m² | - |
| 1777405797 | 8.89° C | 48% | 1026.2 hPa | 0 mm | - | 0 W/m² | - |
| 1777405047 | 9.44° C | 47% | 1026.3 hPa | 0 mm | - | 0 W/m² | - |
| 1777404296 | 9.44° C | 48% | 1026.3 hPa | 0 mm | - | 0 W/m² | - |
| 1777403546 | 9.44° C | 48% | 1026.4 hPa | 0 mm | - | 0 W/m² | - |
| 1777402796 | 10° C | 45% | 1026 hPa | 0 mm | - | 0 W/m² | - |
| 1777399044 | 11.67° C | 38% | 1025.7 hPa | 0 mm | - | 14 W/m² | - |
| 1777397543 | 12.22° C | 37% | 1025.5 hPa | 0 mm | - | 23 W/m² | - |
| 1777396793 | 12.22° C | 38% | 1025.7 hPa | 0 mm | - | 25 W/m² | - |
| 1777396042 | 12.22° C | 36% | 1025.4 hPa | 0 mm | - | 42 W/m² | - |
| 1777390040 | 13.33° C | 35% | 1025.4 hPa | 0 mm | - | 284 W/m² | - |
| 1777389290 | 13.89° C | 35% | 1025.4 hPa | 0 mm | - | 317 W/m² | - |
| 1777387039 | 13.89° C | 34% | 1025.7 hPa | 0 mm | - | 46 W/m² | - |
| 1777385539 | 13.89° C | 35% | 1025.9 hPa | 0 mm | - | 597 W/m² | - |
* Rain latest hour (hover to see other rain measurements)
** Current wind speed in m/s (hover to see current wind gust speed)